sensor_id;sensor_type;location;lat;lon;timestamp;P1;durP1;ratioP1;P2;durP2;ratioP2
1128;SDS011;553;51.038;7.216;2024-03-23T00:55:41;17.40;;;8.87;;
1128;SDS011;553;51.038;7.216;2024-03-23T00:58:08;21.30;;;9.83;;
1128;SDS011;553;51.038;7.216;2024-03-23T01:00:34;20.27;;;8.37;;
1128;SDS011;553;51.038;7.216;2024-03-23T01:03:00;25.37;;;9.70;;
1128;SDS011;553;51.038;7.216;2024-03-23T01:05:26;21.20;;;9.17;;
1128;SDS011;553;51.038;7.216;2024-03-23T01:07:51;20.10;;;8.80;;
1128;SDS011;553;51.038;7.216;2024-03-23T01:10:17;19.30;;;8.53;;
1128;SDS011;553;51.038;7.216;2024-03-23T01:12:43;17.67;;;8.13;;
1128;SDS011;553;51.038;7.216;2024-03-23T01:15:09;16.43;;;7.30;;
1128;SDS011;553;51.038;7.216;2024-03-23T01:17:35;23.37;;;8.90;;
1128;SDS011;553;51.038;7.216;2024-03-23T01:20:01;12.73;;;7.80;;
1128;SDS011;553;51.038;7.216;2024-03-23T01:22:27;23.57;;;7.47;;
1128;SDS011;553;51.038;7.216;2024-03-23T01:24:53;16.70;;;8.07;;
1128;SDS011;553;51.038;7.216;2024-03-23T01:27:18;19.50;;;8.13;;
1128;SDS011;553;51.038;7.216;2024-03-23T01:29:44;14.47;;;8.30;;
1128;SDS011;553;51.038;7.216;2024-03-23T01:32:10;16.13;;;6.97;;
1128;SDS011;553;51.038;7.216;2024-03-23T01:34:36;17.70;;;7.67;;
1128;SDS011;553;51.038;7.216;2024-03-23T01:37:02;15.77;;;7.00;;
1128;SDS011;553;51.038;7.216;2024-03-23T01:39:28;14.40;;;6.13;;
1128;SDS011;553;51.038;7.216;2024-03-23T01:41:54;12.33;;;5.80;;
1128;SDS011;553;51.038;7.216;2024-03-23T01:44:19;12.53;;;6.17;;
1128;SDS011;553;51.038;7.216;2024-03-23T01:46:45;13.40;;;5.83;;
1128;SDS011;553;51.038;7.216;2024-03-23T01:49:12;8.20;;;4.63;;
1128;SDS011;553;51.038;7.216;2024-03-23T01:51:38;10.93;;;4.67;;
1128;SDS011;553;51.038;7.216;2024-03-23T01:54:04;11.43;;;5.30;;
1128;SDS011;553;51.038;7.216;2024-03-23T01:56:32;13.17;;;4.87;;
1128;SDS011;553;51.038;7.216;2024-03-23T01:59:02;9.90;;;5.27;;
1128;SDS011;553;51.038;7.216;2024-03-23T02:01:29;9.43;;;5.53;;
1128;SDS011;553;51.038;7.216;2024-03-23T02:03:55;14.17;;;5.47;;
1128;SDS011;553;51.038;7.216;2024-03-23T02:06:21;12.47;;;6.40;;
1128;SDS011;553;51.038;7.216;2024-03-23T02:08:49;12.00;;;6.00;;
1128;SDS011;553;51.038;7.216;2024-03-23T02:11:15;9.27;;;3.90;;
1128;SDS011;553;51.038;7.216;2024-03-23T02:13:41;6.50;;;3.63;;
1128;SDS011;553;51.038;7.216;2024-03-23T02:16:07;9.07;;;4.07;;
1128;SDS011;553;51.038;7.216;2024-03-23T02:18:33;14.00;;;4.07;;
1128;SDS011;553;51.038;7.216;2024-03-23T02:20:59;7.53;;;3.90;;
1128;SDS011;553;51.038;7.216;2024-03-23T02:23:26;10.20;;;4.60;;
1128;SDS011;553;51.038;7.216;2024-03-23T02:25:51;7.07;;;3.10;;
1128;SDS011;553;51.038;7.216;2024-03-23T02:28:18;9.30;;;3.90;;
1128;SDS011;553;51.038;7.216;2024-03-23T02:30:45;12.93;;;4.00;;
1128;SDS011;553;51.038;7.216;2024-03-23T02:33:11;7.37;;;3.30;;
1128;SDS011;553;51.038;7.216;2024-03-23T02:35:38;9.83;;;3.30;;
1128;SDS011;553;51.038;7.216;2024-03-23T02:38:03;9.33;;;4.40;;
1128;SDS011;553;51.038;7.216;2024-03-23T02:40:29;10.33;;;4.17;;
1128;SDS011;553;51.038;7.216;2024-03-23T02:42:55;11.93;;;3.67;;
1128;SDS011;553;51.038;7.216;2024-03-23T02:45:21;6.40;;;3.23;;
1128;SDS011;553;51.038;7.216;2024-03-23T02:47:47;9.17;;;3.63;;
1128;SDS011;553;51.038;7.216;2024-03-23T02:50:20;6.10;;;3.10;;
1128;SDS011;553;51.038;7.216;2024-03-23T02:52:46;11.90;;;3.83;;
1128;SDS011;553;51.038;7.216;2024-03-23T02:55:12;8.40;;;2.70;;
1128;SDS011;553;51.038;7.216;2024-03-23T02:57:38;8.10;;;3.40;;
1128;SDS011;553;51.038;7.216;2024-03-23T03:00:05;7.67;;;2.53;;
1128;SDS011;553;51.038;7.216;2024-03-23T03:02:32;6.33;;;1.83;;
1128;SDS011;553;51.038;7.216;2024-03-23T03:04:58;5.83;;;2.37;;
1128;SDS011;553;51.038;7.216;2024-03-23T03:07:24;8.93;;;3.17;;
1128;SDS011;553;51.038;7.216;2024-03-23T03:09:50;10.57;;;2.57;;
1128;SDS011;553;51.038;7.216;2024-03-23T03:12:16;6.63;;;2.00;;
1128;SDS011;553;51.038;7.216;2024-03-23T03:14:42;9.33;;;2.70;;
1128;SDS011;553;51.038;7.216;2024-03-23T03:17:08;5.30;;;2.10;;
1128;SDS011;553;51.038;7.216;2024-03-23T03:19:34;8.83;;;2.43;;
1128;SDS011;553;51.038;7.216;2024-03-23T03:22:00;8.77;;;1.93;;
1128;SDS011;553;51.038;7.216;2024-03-23T03:24:26;11.50;;;2.07;;
1128;SDS011;553;51.038;7.216;2024-03-23T03:26:51;6.87;;;1.67;;
1128;SDS011;553;51.038;7.216;2024-03-23T03:29:17;4.50;;;2.40;;
1128;SDS011;553;51.038;7.216;2024-03-23T03:31:43;7.03;;;2.27;;
1128;SDS011;553;51.038;7.216;2024-03-23T03:34:09;4.10;;;1.70;;
1128;SDS011;553;51.038;7.216;2024-03-23T03:36:35;11.17;;;2.17;;
1128;SDS011;553;51.038;7.216;2024-03-23T03:39:01;4.60;;;1.67;;
1128;SDS011;553;51.038;7.216;2024-03-23T03:41:28;7.10;;;2.10;;
1128;SDS011;553;51.038;7.216;2024-03-23T03:43:54;7.50;;;2.00;;
1128;SDS011;553;51.038;7.216;2024-03-23T03:46:21;4.87;;;1.63;;
1128;SDS011;553;51.038;7.216;2024-03-23T03:48:47;9.73;;;2.17;;
1128;SDS011;553;51.038;7.216;2024-03-23T03:51:13;7.73;;;1.60;;
1128;SDS011;553;51.038;7.216;2024-03-23T03:53:39;7.87;;;2.00;;
1128;SDS011;553;51.038;7.216;2024-03-23T03:56:05;7.83;;;2.23;;
1128;SDS011;553;51.038;7.216;2024-03-23T03:58:32;8.17;;;1.73;;
1128;SDS011;553;51.038;7.216;2024-03-23T04:00:57;6.07;;;1.70;;
1128;SDS011;553;51.038;7.216;2024-03-23T04:03:23;6.50;;;1.37;;
1128;SDS011;553;51.038;7.216;2024-03-23T04:05:50;10.73;;;2.03;;
1128;SDS011;553;51.038;7.216;2024-03-23T04:08:17;7.87;;;2.00;;
1128;SDS011;553;51.038;7.216;2024-03-23T04:10:44;7.90;;;1.77;;
1128;SDS011;553;51.038;7.216;2024-03-23T04:13:11;5.70;;;1.73;;
1128;SDS011;553;51.038;7.216;2024-03-23T04:15:37;8.43;;;2.20;;
1128;SDS011;553;51.038;7.216;2024-03-23T04:18:03;4.70;;;2.60;;
1128;SDS011;553;51.038;7.216;2024-03-23T04:20:29;8.33;;;2.40;;
1128;SDS011;553;51.038;7.216;2024-03-23T04:22:55;4.27;;;1.70;;
1128;SDS011;553;51.038;7.216;2024-03-23T04:25:21;8.43;;;2.23;;
1128;SDS011;553;51.038;7.216;2024-03-23T04:27:47;13.93;;;2.30;;
1128;SDS011;553;51.038;7.216;2024-03-23T04:30:12;9.00;;;2.63;;
1128;SDS011;553;51.038;7.216;2024-03-23T04:32:39;11.67;;;3.37;;
1128;SDS011;553;51.038;7.216;2024-03-23T04:35:05;7.33;;;4.10;;
1128;SDS011;553;51.038;7.216;2024-03-23T04:37:35;12.77;;;3.50;;
1128;SDS011;553;51.038;7.216;2024-03-23T04:40:02;11.87;;;2.90;;
1128;SDS011;553;51.038;7.216;2024-03-23T04:42:28;11.63;;;4.20;;
1128;SDS011;553;51.038;7.216;2024-03-23T04:44:55;11.87;;;3.53;;
1128;SDS011;553;51.038;7.216;2024-03-23T04:47:21;15.60;;;3.87;;
1128;SDS011;553;51.038;7.216;2024-03-23T04:49:48;8.73;;;4.00;;
1128;SDS011;553;51.038;7.216;2024-03-23T04:52:15;5.90;;;2.97;;
1128;SDS011;553;51.038;7.216;2024-03-23T04:54:41;6.87;;;3.00;;
1128;SDS011;553;51.038;7.216;2024-03-23T04:57:07;17.97;;;3.90;;
1128;SDS011;553;51.038;7.216;2024-03-23T04:59:33;11.57;;;2.90;;
1128;SDS011;553;51.038;7.216;2024-03-23T05:01:59;16.57;;;3.40;;
1128;SDS011;553;51.038;7.216;2024-03-23T05:04:26;12.83;;;3.70;;
1128;SDS011;553;51.038;7.216;2024-03-23T05:06:52;14.20;;;4.73;;
1128;SDS011;553;51.038;7.216;2024-03-23T05:09:18;18.73;;;4.63;;
1128;SDS011;553;51.038;7.216;2024-03-23T05:11:45;14.97;;;4.60;;
1128;SDS011;553;51.038;7.216;2024-03-23T05:14:14;17.27;;;5.10;;
1128;SDS011;553;51.038;7.216;2024-03-23T05:16:40;14.70;;;5.23;;
1128;SDS011;553;51.038;7.216;2024-03-23T05:19:06;19.07;;;6.60;;
1128;SDS011;553;51.038;7.216;2024-03-23T05:21:32;14.03;;;5.03;;
1128;SDS011;553;51.038;7.216;2024-03-23T05:23:58;10.47;;;5.20;;
1128;SDS011;553;51.038;7.216;2024-03-23T05:26:23;20.83;;;5.77;;
1128;SDS011;553;51.038;7.216;2024-03-23T05:28:49;13.40;;;6.57;;
1128;SDS011;553;51.038;7.216;2024-03-23T05:31:22;14.10;;;7.17;;
1128;SDS011;553;51.038;7.216;2024-03-23T05:33:56;15.23;;;5.87;;
1128;SDS011;553;51.038;7.216;2024-03-23T05:36:22;18.50;;;6.37;;
1128;SDS011;553;51.038;7.216;2024-03-23T05:38:49;24.87;;;7.40;;
1128;SDS011;553;51.038;7.216;2024-03-23T05:41:15;15.77;;;6.40;;
1128;SDS011;553;51.038;7.216;2024-03-23T05:43:41;17.77;;;7.47;;
1128;SDS011;553;51.038;7.216;2024-03-23T05:46:07;17.73;;;7.63;;
1128;SDS011;553;51.038;7.216;2024-03-23T05:48:34;21.20;;;7.80;;
1128;SDS011;553;51.038;7.216;2024-03-23T05:51:00;19.57;;;8.33;;
1128;SDS011;553;51.038;7.216;2024-03-23T05:53:26;20.50;;;8.63;;
1128;SDS011;553;51.038;7.216;2024-03-23T05:56:00;20.03;;;7.00;;
1128;SDS011;553;51.038;7.216;2024-03-23T05:58:31;18.90;;;7.27;;
1128;SDS011;553;51.038;7.216;2024-03-23T06:01:00;21.90;;;6.93;;
1128;SDS011;553;51.038;7.216;2024-03-23T06:03:27;18.27;;;6.70;;
1128;SDS011;553;51.038;7.216;2024-03-23T06:05:54;16.20;;;5.47;;
1128;SDS011;553;51.038;7.216;2024-03-23T06:08:21;18.70;;;5.70;;
1128;SDS011;553;51.038;7.216;2024-03-23T06:10:47;17.03;;;5.43;;
1128;SDS011;553;51.038;7.216;2024-03-23T06:13:13;14.20;;;5.63;;
1128;SDS011;553;51.038;7.216;2024-03-23T06:15:39;15.73;;;4.97;;
1128;SDS011;553;51.038;7.216;2024-03-23T06:18:05;21.50;;;6.83;;
1128;SDS011;553;51.038;7.216;2024-03-23T06:20:33;21.37;;;5.90;;
1128;SDS011;553;51.038;7.216;2024-03-23T06:23:00;13.20;;;5.30;;
1128;SDS011;553;51.038;7.216;2024-03-23T06:25:27;20.70;;;5.37;;
1128;SDS011;553;51.038;7.216;2024-03-23T06:27:53;15.03;;;5.13;;
1128;SDS011;553;51.038;7.216;2024-03-23T06:30:18;20.90;;;6.30;;
1128;SDS011;553;51.038;7.216;2024-03-23T06:32:44;16.30;;;4.93;;
1128;SDS011;553;51.038;7.216;2024-03-23T06:35:10;13.87;;;4.50;;
1128;SDS011;553;51.038;7.216;2024-03-23T06:37:36;10.63;;;4.50;;
1128;SDS011;553;51.038;7.216;2024-03-23T06:40:02;17.97;;;5.33;;
1128;SDS011;553;51.038;7.216;2024-03-23T06:42:30;16.67;;;7.40;;
1128;SDS011;553;51.038;7.216;2024-03-23T06:44:55;16.77;;;6.10;;
1128;SDS011;553;51.038;7.216;2024-03-23T06:47:21;24.57;;;9.13;;
1128;SDS011;553;51.038;7.216;2024-03-23T06:49:47;16.23;;;5.20;;
1128;SDS011;553;51.038;7.216;2024-03-23T06:52:13;18.13;;;6.17;;
1128;SDS011;553;51.038;7.216;2024-03-23T06:54:39;17.67;;;6.60;;
1128;SDS011;553;51.038;7.216;2024-03-23T06:57:05;16.40;;;6.90;;
1128;SDS011;553;51.038;7.216;2024-03-23T06:59:30;15.27;;;6.13;;
1128;SDS011;553;51.038;7.216;2024-03-23T07:01:56;22.17;;;6.17;;
1128;SDS011;553;51.038;7.216;2024-03-23T07:04:22;22.90;;;6.60;;
1128;SDS011;553;51.038;7.216;2024-03-23T07:06:48;12.47;;;6.87;;
1128;SDS011;553;51.038;7.216;2024-03-23T07:09:13;20.23;;;8.97;;
1128;SDS011;553;51.038;7.216;2024-03-23T07:11:39;13.87;;;7.17;;
1128;SDS011;553;51.038;7.216;2024-03-23T07:14:05;21.30;;;7.30;;
1128;SDS011;553;51.038;7.216;2024-03-23T07:16:31;20.53;;;7.07;;
1128;SDS011;553;51.038;7.216;2024-03-23T07:18:57;13.73;;;7.40;;
1128;SDS011;553;51.038;7.216;2024-03-23T07:21:23;15.50;;;6.97;;
1128;SDS011;553;51.038;7.216;2024-03-23T07:23:49;14.47;;;7.37;;
1128;SDS011;553;51.038;7.216;2024-03-23T07:26:15;24.07;;;7.43;;
1128;SDS011;553;51.038;7.216;2024-03-23T07:28:42;30.07;;;6.37;;
1128;SDS011;553;51.038;7.216;2024-03-23T07:31:10;14.97;;;6.43;;
1128;SDS011;553;51.038;7.216;2024-03-23T07:33:40;20.20;;;8.60;;
1128;SDS011;553;51.038;7.216;2024-03-23T07:36:07;18.47;;;7.20;;
1128;SDS011;553;51.038;7.216;2024-03-23T07:38:33;15.53;;;8.23;;
1128;SDS011;553;51.038;7.216;2024-03-23T07:41:03;24.47;;;8.00;;
1128;SDS011;553;51.038;7.216;2024-03-23T07:43:33;22.60;;;8.93;;
1128;SDS011;553;51.038;7.216;2024-03-23T07:45:59;20.50;;;9.30;;
1128;SDS011;553;51.038;7.216;2024-03-23T07:48:26;20.47;;;10.30;;
1128;SDS011;553;51.038;7.216;2024-03-23T07:51:03;21.10;;;12.40;;
1128;SDS011;553;51.038;7.216;2024-03-23T07:53:31;17.90;;;10.53;;
1128;SDS011;553;51.038;7.216;2024-03-23T07:55:58;21.10;;;11.13;;
1128;SDS011;553;51.038;7.216;2024-03-23T07:58:25;21.90;;;9.53;;
1128;SDS011;553;51.038;7.216;2024-03-23T08:00:52;25.17;;;11.27;;
1128;SDS011;553;51.038;7.216;2024-03-23T08:03:18;25.93;;;12.87;;
1128;SDS011;553;51.038;7.216;2024-03-23T08:05:44;18.03;;;10.90;;
1128;SDS011;553;51.038;7.216;2024-03-23T08:08:10;21.50;;;11.57;;
1128;SDS011;553;51.038;7.216;2024-03-23T08:10:37;19.00;;;10.53;;
1128;SDS011;553;51.038;7.216;2024-03-23T08:13:12;17.57;;;8.93;;
1128;SDS011;553;51.038;7.216;2024-03-23T08:15:38;18.70;;;8.70;;
1128;SDS011;553;51.038;7.216;2024-03-23T08:18:04;21.40;;;8.60;;
1128;SDS011;553;51.038;7.216;2024-03-23T08:20:30;19.43;;;10.40;;
1128;SDS011;553;51.038;7.216;2024-03-23T08:22:56;18.77;;;11.37;;
1128;SDS011;553;51.038;7.216;2024-03-23T08:25:21;27.23;;;10.40;;
1128;SDS011;553;51.038;7.216;2024-03-23T08:27:47;20.23;;;9.87;;
1128;SDS011;553;51.038;7.216;2024-03-23T08:30:13;18.63;;;10.10;;
1128;SDS011;553;51.038;7.216;2024-03-23T08:32:39;23.20;;;11.00;;
1128;SDS011;553;51.038;7.216;2024-03-23T08:35:05;17.90;;;10.27;;
1128;SDS011;553;51.038;7.216;2024-03-23T08:37:32;21.47;;;9.40;;
1128;SDS011;553;51.038;7.216;2024-03-23T08:39:58;17.03;;;9.13;;
1128;SDS011;553;51.038;7.216;2024-03-23T08:42:24;15.90;;;8.83;;
1128;SDS011;553;51.038;7.216;2024-03-23T08:44:49;17.97;;;8.90;;
1128;SDS011;553;51.038;7.216;2024-03-23T08:47:15;24.40;;;8.67;;
1128;SDS011;553;51.038;7.216;2024-03-23T08:49:41;24.67;;;9.40;;
1128;SDS011;553;51.038;7.216;2024-03-23T08:52:08;17.40;;;7.60;;
1128;SDS011;553;51.038;7.216;2024-03-23T08:54:34;12.63;;;7.53;;
1128;SDS011;553;51.038;7.216;2024-03-23T08:57:00;17.53;;;8.90;;
1128;SDS011;553;51.038;7.216;2024-03-23T08:59:25;12.90;;;7.20;;
1128;SDS011;553;51.038;7.216;2024-03-23T09:01:52;13.23;;;6.20;;
1128;SDS011;553;51.038;7.216;2024-03-23T09:04:18;11.47;;;5.83;;
1128;SDS011;553;51.038;7.216;2024-03-23T09:06:44;15.80;;;6.43;;
1128;SDS011;553;51.038;7.216;2024-03-23T09:09:10;12.50;;;4.70;;
1128;SDS011;553;51.038;7.216;2024-03-23T09:11:36;8.73;;;4.40;;
1128;SDS011;553;51.038;7.216;2024-03-23T09:14:03;10.10;;;4.40;;
1128;SDS011;553;51.038;7.216;2024-03-23T09:16:29;11.43;;;4.30;;
1128;SDS011;553;51.038;7.216;2024-03-23T09:18:55;7.93;;;3.90;;
1128;SDS011;553;51.038;7.216;2024-03-23T09:21:21;9.03;;;3.20;;
1128;SDS011;553;51.038;7.216;2024-03-23T09:23:47;10.30;;;4.20;;
1128;SDS011;553;51.038;7.216;2024-03-23T09:26:12;12.60;;;4.27;;
1128;SDS011;553;51.038;7.216;2024-03-23T09:28:38;10.77;;;4.63;;
1128;SDS011;553;51.038;7.216;2024-03-23T09:31:08;7.40;;;5.00;;
1128;SDS011;553;51.038;7.216;2024-03-23T09:33:39;8.70;;;4.37;;
1128;SDS011;553;51.038;7.216;2024-03-23T09:36:05;7.77;;;3.90;;
1128;SDS011;553;51.038;7.216;2024-03-23T09:38:32;10.70;;;5.07;;
1128;SDS011;553;51.038;7.216;2024-03-23T09:40:59;10.53;;;4.20;;
1128;SDS011;553;51.038;7.216;2024-03-23T09:43:25;13.93;;;4.90;;
1128;SDS011;553;51.038;7.216;2024-03-23T09:45:51;10.33;;;4.70;;
1128;SDS011;553;51.038;7.216;2024-03-23T09:48:18;8.60;;;3.40;;
1128;SDS011;553;51.038;7.216;2024-03-23T09:50:45;11.57;;;4.57;;
1128;SDS011;553;51.038;7.216;2024-03-23T09:53:12;9.20;;;4.20;;
1128;SDS011;553;51.038;7.216;2024-03-23T09:55:39;11.17;;;4.70;;
1128;SDS011;553;51.038;7.216;2024-03-23T09:58:06;10.63;;;4.10;;
1128;SDS011;553;51.038;7.216;2024-03-23T10:00:32;10.10;;;3.90;;
1128;SDS011;553;51.038;7.216;2024-03-23T10:03:01;11.40;;;4.30;;
1128;SDS011;553;51.038;7.216;2024-03-23T10:05:28;11.23;;;4.10;;
1128;SDS011;553;51.038;7.216;2024-03-23T10:07:54;15.17;;;3.80;;
1128;SDS011;553;51.038;7.216;2024-03-23T10:10:20;7.60;;;3.40;;
1128;SDS011;553;51.038;7.216;2024-03-23T10:12:47;10.50;;;3.93;;
1128;SDS011;553;51.038;7.216;2024-03-23T10:15:21;10.43;;;3.50;;
1128;SDS011;553;51.038;7.216;2024-03-23T10:17:49;5.20;;;3.20;;
1128;SDS011;553;51.038;7.216;2024-03-23T10:20:21;10.43;;;3.70;;
1128;SDS011;553;51.038;7.216;2024-03-23T10:22:48;7.50;;;2.77;;
1128;SDS011;553;51.038;7.216;2024-03-23T10:25:15;7.57;;;3.03;;
1128;SDS011;553;51.038;7.216;2024-03-23T10:27:41;7.10;;;3.40;;
1128;SDS011;553;51.038;7.216;2024-03-23T10:30:09;12.40;;;2.70;;
1128;SDS011;553;51.038;7.216;2024-03-23T10:32:37;8.73;;;2.33;;
1128;SDS011;553;51.038;7.216;2024-03-23T10:35:21;5.33;;;2.00;;
1128;SDS011;553;51.038;7.216;2024-03-23T10:37:48;8.13;;;2.47;;
1128;SDS011;553;51.038;7.216;2024-03-23T10:40:15;5.47;;;1.53;;
1128;SDS011;553;51.038;7.216;2024-03-23T10:42:41;6.63;;;1.63;;
1128;SDS011;553;51.038;7.216;2024-03-23T10:45:08;7.00;;;2.43;;
1128;SDS011;553;51.038;7.216;2024-03-23T10:47:34;4.30;;;1.77;;
1128;SDS011;553;51.038;7.216;2024-03-23T10:50:01;6.63;;;1.80;;
1128;SDS011;553;51.038;7.216;2024-03-23T10:52:29;7.60;;;1.43;;
1128;SDS011;553;51.038;7.216;2024-03-23T10:54:55;4.87;;;2.67;;
1128;SDS011;553;51.038;7.216;2024-03-23T10:57:24;5.33;;;1.40;;
1128;SDS011;553;51.038;7.216;2024-03-23T11:00:05;3.33;;;0.93;;
1128;SDS011;553;51.038;7.216;2024-03-23T11:02:31;5.27;;;1.23;;
1128;SDS011;553;51.038;7.216;2024-03-23T11:04:57;2.07;;;1.20;;
1128;SDS011;553;51.038;7.216;2024-03-23T11:09:55;5.90;;;1.67;;
1128;SDS011;553;51.038;7.216;2024-03-23T11:15:05;6.13;;;1.07;;
1128;SDS011;553;51.038;7.216;2024-03-23T11:17:36;2.73;;;1.13;;
1128;SDS011;553;51.038;7.216;2024-03-23T11:20:06;5.30;;;2.57;;
1128;SDS011;553;51.038;7.216;2024-03-23T11:25:12;4.83;;;1.33;;
1128;SDS011;553;51.038;7.216;2024-03-23T11:27:46;2.90;;;1.20;;
1128;SDS011;553;51.038;7.216;2024-03-23T11:32:40;7.00;;;1.00;;
1128;SDS011;553;51.038;7.216;2024-03-23T11:35:10;5.73;;;1.20;;
1128;SDS011;553;51.038;7.216;2024-03-23T11:38:00;5.23;;;1.63;;
1128;SDS011;553;51.038;7.216;2024-03-23T11:40:26;3.77;;;1.40;;
1128;SDS011;553;51.038;7.216;2024-03-23T11:42:56;2.93;;;1.53;;
1128;SDS011;553;51.038;7.216;2024-03-23T11:45:23;2.10;;;1.20;;
1128;SDS011;553;51.038;7.216;2024-03-23T11:48:01;3.87;;;1.70;;
1128;SDS011;553;51.038;7.216;2024-03-23T11:50:27;3.97;;;1.37;;
1128;SDS011;553;51.038;7.216;2024-03-23T11:52:53;1.80;;;0.73;;
1128;SDS011;553;51.038;7.216;2024-03-23T11:55:45;3.67;;;1.83;;
1128;SDS011;553;51.038;7.216;2024-03-23T11:58:14;4.17;;;0.80;;
1128;SDS011;553;51.038;7.216;2024-03-23T12:00:40;3.23;;;1.00;;
1128;SDS011;553;51.038;7.216;2024-03-23T12:03:07;1.57;;;0.40;;
1128;SDS011;553;51.038;7.216;2024-03-23T12:05:33;2.37;;;0.87;;
1128;SDS011;553;51.038;7.216;2024-03-23T12:08:22;1.13;;;0.50;;
1128;SDS011;553;51.038;7.216;2024-03-23T12:13:36;1.93;;;0.70;;
1128;SDS011;553;51.038;7.216;2024-03-23T12:16:10;2.40;;;1.00;;
1128;SDS011;553;51.038;7.216;2024-03-23T12:18:49;2.47;;;0.80;;
1128;SDS011;553;51.038;7.216;2024-03-23T12:21:18;2.20;;;0.93;;
1128;SDS011;553;51.038;7.216;2024-03-23T12:23:44;2.17;;;0.80;;
1128;SDS011;553;51.038;7.216;2024-03-23T12:26:12;4.47;;;1.17;;
1128;SDS011;553;51.038;7.216;2024-03-23T12:28:38;2.70;;;1.10;;
1128;SDS011;553;51.038;7.216;2024-03-23T12:31:04;3.50;;;1.50;;
1128;SDS011;553;51.038;7.216;2024-03-23T12:33:31;4.43;;;1.53;;
1128;SDS011;553;51.038;7.216;2024-03-23T12:35:56;2.40;;;1.60;;
1128;SDS011;553;51.038;7.216;2024-03-23T12:38:22;6.60;;;2.53;;
1128;SDS011;553;51.038;7.216;2024-03-23T12:40:49;1.10;;;0.90;;
1128;SDS011;553;51.038;7.216;2024-03-23T12:43:15;0.87;;;0.40;;
1128;SDS011;553;51.038;7.216;2024-03-23T12:45:49;1.40;;;0.50;;
1128;SDS011;553;51.038;7.216;2024-03-23T12:48:15;0.73;;;0.40;;
1128;SDS011;553;51.038;7.216;2024-03-23T12:50:41;1.40;;;0.60;;
1128;SDS011;553;51.038;7.216;2024-03-23T12:53:07;2.43;;;0.50;;
1128;SDS011;553;51.038;7.216;2024-03-23T12:55:36;2.43;;;0.60;;
1128;SDS011;553;51.038;7.216;2024-03-23T12:58:02;2.53;;;1.00;;
1128;SDS011;553;51.038;7.216;2024-03-23T13:00:28;4.57;;;0.83;;
1128;SDS011;553;51.038;7.216;2024-03-23T13:02:54;2.00;;;0.70;;
1128;SDS011;553;51.038;7.216;2024-03-23T13:05:20;3.67;;;1.00;;
1128;SDS011;553;51.038;7.216;2024-03-23T13:07:46;2.20;;;0.60;;
1128;SDS011;553;51.038;7.216;2024-03-23T13:10:12;2.97;;;0.67;;
1128;SDS011;553;51.038;7.216;2024-03-23T13:12:38;2.43;;;0.70;;
1128;SDS011;553;51.038;7.216;2024-03-23T13:15:04;1.43;;;0.70;;
1128;SDS011;553;51.038;7.216;2024-03-23T13:17:30;4.30;;;0.73;;
1128;SDS011;553;51.038;7.216;2024-03-23T13:19:56;3.20;;;0.73;;
1128;SDS011;553;51.038;7.216;2024-03-23T13:22:22;0.90;;;0.53;;
1128;SDS011;553;51.038;7.216;2024-03-23T13:24:48;2.83;;;1.00;;
1128;SDS011;553;51.038;7.216;2024-03-23T13:27:14;2.00;;;0.73;;
1128;SDS011;553;51.038;7.216;2024-03-23T13:29:40;2.07;;;0.70;;
1128;SDS011;553;51.038;7.216;2024-03-23T13:32:06;0.93;;;0.57;;
1128;SDS011;553;51.038;7.216;2024-03-23T13:34:33;2.90;;;0.80;;
1128;SDS011;553;51.038;7.216;2024-03-23T13:37:00;3.20;;;1.60;;
1128;SDS011;553;51.038;7.216;2024-03-23T13:39:26;3.47;;;1.03;;
1128;SDS011;553;51.038;7.216;2024-03-23T13:41:55;3.00;;;0.97;;
1128;SDS011;553;51.038;7.216;2024-03-23T13:44:21;1.20;;;0.90;;
1128;SDS011;553;51.038;7.216;2024-03-23T13:46:47;2.77;;;1.50;;
1128;SDS011;553;51.038;7.216;2024-03-23T13:51:56;6.37;;;1.47;;
1128;SDS011;553;51.038;7.216;2024-03-23T13:54:23;3.40;;;1.30;;
1128;SDS011;553;51.038;7.216;2024-03-23T13:56:50;2.63;;;1.27;;
1128;SDS011;553;51.038;7.216;2024-03-23T13:59:17;3.50;;;1.70;;
1128;SDS011;553;51.038;7.216;2024-03-23T14:01:43;2.83;;;2.00;;
1128;SDS011;553;51.038;7.216;2024-03-23T14:04:11;5.07;;;1.90;;
1128;SDS011;553;51.038;7.216;2024-03-23T14:06:37;3.60;;;2.03;;
1128;SDS011;553;51.038;7.216;2024-03-23T14:09:03;5.43;;;1.93;;
1128;SDS011;553;51.038;7.216;2024-03-23T14:11:29;6.30;;;2.30;;
1128;SDS011;553;51.038;7.216;2024-03-23T14:13:55;4.27;;;2.13;;
1128;SDS011;553;51.038;7.216;2024-03-23T14:16:21;5.33;;;2.97;;
1128;SDS011;553;51.038;7.216;2024-03-23T14:18:47;7.70;;;2.27;;
1128;SDS011;553;51.038;7.216;2024-03-23T14:21:13;3.67;;;1.27;;
1128;SDS011;553;51.038;7.216;2024-03-23T14:23:39;6.90;;;1.43;;
1128;SDS011;553;51.038;7.216;2024-03-23T14:26:06;3.43;;;1.40;;
1128;SDS011;553;51.038;7.216;2024-03-23T14:28:33;6.20;;;2.30;;
1128;SDS011;553;51.038;7.216;2024-03-23T14:31:00;5.37;;;2.93;;
1128;SDS011;553;51.038;7.216;2024-03-23T14:33:26;4.40;;;2.50;;
1128;SDS011;553;51.038;7.216;2024-03-23T14:35:53;4.53;;;0.90;;
1128;SDS011;553;51.038;7.216;2024-03-23T14:38:20;3.90;;;1.20;;
1128;SDS011;553;51.038;7.216;2024-03-23T14:40:46;3.17;;;1.30;;
1128;SDS011;553;51.038;7.216;2024-03-23T14:43:12;3.73;;;1.50;;
1128;SDS011;553;51.038;7.216;2024-03-23T14:48:32;3.33;;;1.10;;
1128;SDS011;553;51.038;7.216;2024-03-23T14:50:59;4.80;;;1.20;;
1128;SDS011;553;51.038;7.216;2024-03-23T14:53:25;4.63;;;1.63;;
1128;SDS011;553;51.038;7.216;2024-03-23T14:55:55;4.20;;;1.77;;
1128;SDS011;553;51.038;7.216;2024-03-23T14:58:21;6.20;;;1.53;;
1128;SDS011;553;51.038;7.216;2024-03-23T15:00:48;6.40;;;1.50;;
1128;SDS011;553;51.038;7.216;2024-03-23T15:03:15;2.20;;;1.23;;
1128;SDS011;553;51.038;7.216;2024-03-23T15:05:41;3.20;;;1.53;;
1128;SDS011;553;51.038;7.216;2024-03-23T15:08:07;5.90;;;2.00;;
1128;SDS011;553;51.038;7.216;2024-03-23T15:10:33;2.83;;;1.73;;
1128;SDS011;553;51.038;7.216;2024-03-23T15:12:59;5.20;;;1.80;;
1128;SDS011;553;51.038;7.216;2024-03-23T15:15:25;3.63;;;1.57;;
1128;SDS011;553;51.038;7.216;2024-03-23T15:17:51;3.40;;;1.43;;
1128;SDS011;553;51.038;7.216;2024-03-23T15:20:17;4.20;;;1.60;;
1128;SDS011;553;51.038;7.216;2024-03-23T15:22:43;3.37;;;1.20;;
1128;SDS011;553;51.038;7.216;2024-03-23T15:25:09;5.63;;;1.33;;
1128;SDS011;553;51.038;7.216;2024-03-23T15:27:35;3.67;;;0.90;;
1128;SDS011;553;51.038;7.216;2024-03-23T15:30:00;1.43;;;0.90;;
1128;SDS011;553;51.038;7.216;2024-03-23T15:32:26;2.13;;;1.33;;
1128;SDS011;553;51.038;7.216;2024-03-23T15:34:52;2.50;;;0.90;;
1128;SDS011;553;51.038;7.216;2024-03-23T15:37:18;3.53;;;0.80;;
1128;SDS011;553;51.038;7.216;2024-03-23T15:39:44;2.30;;;1.23;;
1128;SDS011;553;51.038;7.216;2024-03-23T15:42:09;2.50;;;0.77;;
1128;SDS011;553;51.038;7.216;2024-03-23T15:44:35;3.33;;;1.00;;
1128;SDS011;553;51.038;7.216;2024-03-23T15:47:01;8.53;;;1.57;;
1128;SDS011;553;51.038;7.216;2024-03-23T15:49:27;2.60;;;1.10;;
1128;SDS011;553;51.038;7.216;2024-03-23T15:51:53;5.63;;;3.90;;
1128;SDS011;553;51.038;7.216;2024-03-23T15:54:19;2.87;;;1.60;;
1128;SDS011;553;51.038;7.216;2024-03-23T15:56:47;3.23;;;1.20;;
1128;SDS011;553;51.038;7.216;2024-03-23T15:59:12;6.00;;;1.70;;
1128;SDS011;553;51.038;7.216;2024-03-23T16:01:38;3.03;;;1.40;;
1128;SDS011;553;51.038;7.216;2024-03-23T16:04:04;3.27;;;1.27;;
1128;SDS011;553;51.038;7.216;2024-03-23T16:06:30;2.83;;;1.20;;
1128;SDS011;553;51.038;7.216;2024-03-23T16:08:56;3.20;;;1.53;;
1128;SDS011;553;51.038;7.216;2024-03-23T16:11:22;2.80;;;1.20;;
1128;SDS011;553;51.038;7.216;2024-03-23T16:13:48;3.40;;;1.30;;
1128;SDS011;553;51.038;7.216;2024-03-23T16:16:14;3.87;;;1.30;;
1128;SDS011;553;51.038;7.216;2024-03-23T16:18:41;3.40;;;1.80;;
1128;SDS011;553;51.038;7.216;2024-03-23T16:21:09;5.30;;;1.60;;
1128;SDS011;553;51.038;7.216;2024-03-23T16:23:35;7.17;;;2.20;;
1128;SDS011;553;51.038;7.216;2024-03-23T16:26:03;3.50;;;1.47;;
1128;SDS011;553;51.038;7.216;2024-03-23T16:28:30;5.60;;;2.10;;
1128;SDS011;553;51.038;7.216;2024-03-23T16:30:57;3.23;;;1.30;;
1128;SDS011;553;51.038;7.216;2024-03-23T16:33:24;4.73;;;1.30;;